This is the latest recevied weather packets stored in our database for station/object AG1T-20. If no packets are shown the sender has not sent any weather packets the latest 10 day(s).
| Time | Temp. | Humidity | Pressure | Rain* | Wind** | Luminosity | Snow |
|---|---|---|---|---|---|---|---|
| 1787834405 | 13.89° C | 75% | 1022.8 hPa | 0 mm | - | 1 W/m² | - |
| 1787833805 | 13.89° C | 74% | 1022.8 hPa | 0 mm | - | 0 W/m² | - |
| 1787833205 | 14.44° C | 72% | 1022.8 hPa | 0 mm | - | 0 W/m² | - |
| 1787832605 | 15° C | 70% | 1022.8 hPa | 0 mm | - | 0 W/m² | - |
| 1787832005 | 14.44° C | 72% | 1022.8 hPa | 0 mm | - | 0 W/m² | - |
| 1787831405 | 14.44° C | 74% | 1022.9 hPa | 0 mm | - | 0 W/m² | - |
| 1787830805 | 14.44° C | 74% | 1022.9 hPa | 0 mm | - | 0 W/m² | - |
| 1787830205 | 14.44° C | 75% | 1022.9 hPa | 0 mm | - | 0 W/m² | - |
| 1787829605 | 14.44° C | 73% | 1022.9 hPa | 0 mm | - | 0 W/m² | - |
| 1787829005 | 15° C | 71% | 1022.9 hPa | 0 mm | - | 0 W/m² | - |
| 1787828405 | 15° C | 70% | 1022.9 hPa | 0 mm | - | 0 W/m² | - |
| 1787827805 | 15.56° C | 69% | 1022.5 hPa | 0 mm | - | 0 W/m² | - |
| 1787827205 | 15.56° C | 67% | 1022.5 hPa | 0 mm | - | 0 W/m² | - |
| 1787826605 | 15.56° C | 67% | 1022.5 hPa | 0 mm | - | 0 W/m² | - |
| 1787826005 | 15.56° C | 69% | 1022.5 hPa | 0 mm | - | 0 W/m² | - |
| 1787825405 | 16.67° C | 65% | 1022.5 hPa | 0 mm | - | 0 W/m² | - |
| 1787824805 | 16.11° C | 66% | 1022.5 hPa | 0 mm | - | 0 W/m² | - |
| 1787824205 | 16.11° C | 65% | 1022.5 hPa | 0 mm | - | 0 W/m² | - |
| 1787823604 | 16.67° C | 65% | 1022.5 hPa | 0 mm | - | 0 W/m² | - |
| 1787823006 | 16.67° C | 63% | 1022.5 hPa | 0 mm | - | 0 W/m² | - |
| 1787822405 | 16.67° C | 63% | 1022.5 hPa | 0 mm | - | 0 W/m² | - |
| 1787821805 | 16.67° C | 62% | 1022.5 hPa | 0 mm | - | 0 W/m² | - |
| 1787821204 | 17.22° C | 58% | 1022.5 hPa | 0 mm | - | 0 W/m² | - |
| 1787820605 | 17.78° C | 57% | 1022.4 hPa | 0 mm | - | 0 W/m² | - |
| 1787820004 | 17.22° C | 57% | 1022.4 hPa | 0 mm | - | 0 W/m² | - |
* Rain latest hour (hover to see other rain measurements)
** Current wind speed in m/s (hover to see current wind gust speed)